sensor_id;sensor_type;location;lat;lon;timestamp;P1;durP1;ratioP1;P2;durP2;ratioP2
48891;SDS011;50130;52.150;5.236;2022-08-11T00:00:20;6.7;;;4.41;;
48891;SDS011;50130;52.150;5.236;2022-08-11T00:06:03;7.8;;;3.7;;
48891;SDS011;50130;52.150;5.236;2022-08-11T00:07:50;6.7;;;3.9;;
48891;SDS011;50130;52.150;5.236;2022-08-11T00:09:39;7.9;;;4.0;;
48891;SDS011;50130;52.150;5.236;2022-08-11T00:11:34;9.9;;;4.2;;
48891;SDS011;50130;52.150;5.236;2022-08-11T00:13:30;6.6;;;4.3;;
48891;SDS011;50130;52.150;5.236;2022-08-11T00:15:18;6.9;;;4.1;;
48891;SDS011;50130;52.150;5.236;2022-08-11T00:17:08;9.71;;;4.7;;
48891;SDS011;50130;52.150;5.236;2022-08-11T00:18:59;8.1;;;4.2;;
48891;SDS011;50130;52.150;5.236;2022-08-11T00:22:37;7.2;;;4.1;;
48891;SDS011;50130;52.150;5.236;2022-08-11T00:24:31;7.8;;;4.61;;
48891;SDS011;50130;52.150;5.236;2022-08-11T00:26:19;7.3;;;4.1;;
48891;SDS011;50130;52.150;5.236;2022-08-11T00:28:24;8.81;;;4.2;;
48891;SDS011;50130;52.150;5.236;2022-08-11T00:30:13;5.7;;;4.1;;
48891;SDS011;50130;52.150;5.236;2022-08-11T00:32:02;7.0;;;4.0;;
48891;SDS011;50130;52.150;5.236;2022-08-11T00:33:51;7.9;;;4.0;;
48891;SDS011;50130;52.150;5.236;2022-08-11T00:37:25;6.5;;;3.7;;
48891;SDS011;50130;52.150;5.236;2022-08-11T00:39:13;7.0;;;4.2;;
48891;SDS011;50130;52.150;5.236;2022-08-11T00:41:07;7.0;;;4.2;;
48891;SDS011;50130;52.150;5.236;2022-08-11T00:43:09;7.4;;;4.0;;
48891;SDS011;50130;52.150;5.236;2022-08-11T00:45:25;6.0;;;4.1;;
48891;SDS011;50130;52.150;5.236;2022-08-11T00:47:20;6.6;;;3.8;;
48891;SDS011;50130;52.150;5.236;2022-08-11T00:49:23;6.0;;;4.2;;
48891;SDS011;50130;52.150;5.236;2022-08-11T00:51:31;7.1;;;4.2;;
48891;SDS011;50130;52.150;5.236;2022-08-11T00:53:36;5.8;;;4.1;;
48891;SDS011;50130;52.150;5.236;2022-08-11T00:55:38;5.7;;;3.6;;
48891;SDS011;50130;52.150;5.236;2022-08-11T01:00:21;5.3;;;3.8;;
48891;SDS011;50130;52.150;5.236;2022-08-11T01:02:14;6.2;;;3.9;;
48891;SDS011;50130;52.150;5.236;2022-08-11T01:06:50;6.2;;;3.7;;
48891;SDS011;50130;52.150;5.236;2022-08-11T01:09:13;5.0;;;3.9;;
48891;SDS011;50130;52.150;5.236;2022-08-11T01:15:53;7.8;;;4.1;;
48891;SDS011;50130;52.150;5.236;2022-08-11T01:21:40;7.0;;;4.1;;
48891;SDS011;50130;52.150;5.236;2022-08-11T01:22:33;8.4;;;4.5;;
48891;SDS011;50130;52.150;5.236;2022-08-11T01:23:33;8.4;;;4.5;;
48891;SDS011;50130;52.150;5.236;2022-08-11T01:24:42;8.2;;;4.5;;
48891;SDS011;50130;52.150;5.236;2022-08-11T01:25:57;8.2;;;4.5;;
48891;SDS011;50130;52.150;5.236;2022-08-11T01:27:37;4.5;;;4.0;;
48891;SDS011;50130;52.150;5.236;2022-08-11T01:29:34;4.8;;;4.1;;
48891;SDS011;50130;52.150;5.236;2022-08-11T01:33:02;7.2;;;4.8;;
48891;SDS011;50130;52.150;5.236;2022-08-11T01:33:37;7.2;;;4.8;;
48891;SDS011;50130;52.150;5.236;2022-08-11T01:35:30;6.7;;;4.61;;
48891;SDS011;50130;52.150;5.236;2022-08-11T01:40:36;8.9;;;4.8;;
48891;SDS011;50130;52.150;5.236;2022-08-11T01:41:28;7.5;;;4.61;;
48891;SDS011;50130;52.150;5.236;2022-08-11T01:45:01;7.0;;;4.41;;
48891;SDS011;50130;52.150;5.236;2022-08-11T01:47:54;7.4;;;4.5;;
48891;SDS011;50130;52.150;5.236;2022-08-11T01:49:53;7.0;;;4.1;;
48891;SDS011;50130;52.150;5.236;2022-08-11T01:51:59;6.9;;;4.3;;
48891;SDS011;50130;52.150;5.236;2022-08-11T01:53:56;6.6;;;4.8;;
48891;SDS011;50130;52.150;5.236;2022-08-11T01:55:51;7.3;;;4.8;;
48891;SDS011;50130;52.150;5.236;2022-08-11T01:57:46;7.3;;;4.41;;
48891;SDS011;50130;52.150;5.236;2022-08-11T01:59:48;8.81;;;4.7;;
48891;SDS011;50130;52.150;5.236;2022-08-11T02:01:48;7.0;;;4.41;;
48891;SDS011;50130;52.150;5.236;2022-08-11T02:04:07;7.7;;;4.5;;
48891;SDS011;50130;52.150;5.236;2022-08-11T02:06:54;6.4;;;4.5;;
48891;SDS011;50130;52.150;5.236;2022-08-11T02:08:51;10.6;;;4.91;;
48891;SDS011;50130;52.150;5.236;2022-08-11T02:11:51;7.2;;;4.2;;
48891;SDS011;50130;52.150;5.236;2022-08-11T02:13:56;7.5;;;4.7;;
48891;SDS011;50130;52.150;5.236;2022-08-11T02:15:53;6.4;;;4.8;;
48891;SDS011;50130;52.150;5.236;2022-08-11T02:17:59;6.2;;;4.41;;
48891;SDS011;50130;52.150;5.236;2022-08-11T02:24:02;7.3;;;4.8;;
48891;SDS011;50130;52.150;5.236;2022-08-11T02:26:01;7.3;;;5.0;;
48891;SDS011;50130;52.150;5.236;2022-08-11T02:27:54;7.1;;;4.91;;
48891;SDS011;50130;52.150;5.236;2022-08-11T02:29:51;4.91;;;4.41;;
48891;SDS011;50130;52.150;5.236;2022-08-11T02:34:58;8.2;;;5.0;;
48891;SDS011;50130;52.150;5.236;2022-08-11T02:36:59;6.6;;;4.3;;
48891;SDS011;50130;52.150;5.236;2022-08-11T02:38:59;5.4;;;4.91;;
48891;SDS011;50130;52.150;5.236;2022-08-11T02:40:56;5.7;;;4.8;;
48891;SDS011;50130;52.150;5.236;2022-08-11T02:42:49;8.31;;;5.0;;
48891;SDS011;50130;52.150;5.236;2022-08-11T02:44:50;6.2;;;5.0;;
48891;SDS011;50130;52.150;5.236;2022-08-11T02:46:56;7.4;;;4.3;;
48891;SDS011;50130;52.150;5.236;2022-08-11T02:49:57;5.6;;;4.5;;
48891;SDS011;50130;52.150;5.236;2022-08-11T02:52:00;9.71;;;4.91;;
48891;SDS011;50130;52.150;5.236;2022-08-11T02:53:56;5.6;;;4.61;;
48891;SDS011;50130;52.150;5.236;2022-08-11T02:55:57;5.3;;;4.7;;
48891;SDS011;50130;52.150;5.236;2022-08-11T02:59:50;5.11;;;4.3;;
48891;SDS011;50130;52.150;5.236;2022-08-11T03:01:42;6.9;;;4.61;;
48891;SDS011;50130;52.150;5.236;2022-08-11T03:03:43;8.2;;;4.8;;
48891;SDS011;50130;52.150;5.236;2022-08-11T03:05:43;6.0;;;5.0;;
48891;SDS011;50130;52.150;5.236;2022-08-11T03:08:03;8.2;;;5.3;;
48891;SDS011;50130;52.150;5.236;2022-08-11T03:10:09;7.9;;;4.7;;
48891;SDS011;50130;52.150;5.236;2022-08-11T03:18:17;7.1;;;5.3;;
48891;SDS011;50130;52.150;5.236;2022-08-11T03:20:18;5.9;;;5.2;;
48891;SDS011;50130;52.150;5.236;2022-08-11T03:22:22;7.3;;;4.61;;
48891;SDS011;50130;52.150;5.236;2022-08-11T03:24:16;7.6;;;5.2;;
48891;SDS011;50130;52.150;5.236;2022-08-11T03:26:12;5.2;;;4.7;;
48891;SDS011;50130;52.150;5.236;2022-08-11T03:28:20;9.71;;;5.4;;
48891;SDS011;50130;52.150;5.236;2022-08-11T03:30:14;9.0;;;5.6;;
48891;SDS011;50130;52.150;5.236;2022-08-11T03:32:06;7.4;;;4.91;;
48891;SDS011;50130;52.150;5.236;2022-08-11T03:34:05;6.8;;;5.4;;
48891;SDS011;50130;52.150;5.236;2022-08-11T03:36:00;7.1;;;5.5;;
48891;SDS011;50130;52.150;5.236;2022-08-11T03:38:06;6.7;;;5.6;;
48891;SDS011;50130;52.150;5.236;2022-08-11T03:39:58;7.1;;;5.8;;
48891;SDS011;50130;52.150;5.236;2022-08-11T03:42:00;7.1;;;5.8;;
48891;SDS011;50130;52.150;5.236;2022-08-11T03:44:31;7.3;;;5.6;;
48891;SDS011;50130;52.150;5.236;2022-08-11T03:46:34;7.3;;;6.0;;
48891;SDS011;50130;52.150;5.236;2022-08-11T03:48:43;7.6;;;5.2;;
48891;SDS011;50130;52.150;5.236;2022-08-11T03:50:46;8.1;;;5.4;;
48891;SDS011;50130;52.150;5.236;2022-08-11T03:53:07;6.9;;;5.4;;
48891;SDS011;50130;52.150;5.236;2022-08-11T03:55:07;8.0;;;5.9;;
48891;SDS011;50130;52.150;5.236;2022-08-11T03:57:11;6.5;;;5.6;;
48891;SDS011;50130;52.150;5.236;2022-08-11T04:02:04;7.5;;;5.7;;
48891;SDS011;50130;52.150;5.236;2022-08-11T04:07:40;7.6;;;6.0;;
48891;SDS011;50130;52.150;5.236;2022-08-11T04:12:01;9.6;;;6.9;;
48891;SDS011;50130;52.150;5.236;2022-08-11T04:16:41;6.3;;;5.7;;
48891;SDS011;50130;52.150;5.236;2022-08-11T04:21:35;9.31;;;6.3;;
48891;SDS011;50130;52.150;5.236;2022-08-11T04:22:45;6.8;;;6.1;;
48891;SDS011;50130;52.150;5.236;2022-08-11T04:24:26;8.0;;;5.8;;
48891;SDS011;50130;52.150;5.236;2022-08-11T04:26:49;10.21;;;6.9;;
48891;SDS011;50130;52.150;5.236;2022-08-11T04:29:09;6.6;;;5.7;;
48891;SDS011;50130;52.150;5.236;2022-08-11T04:31:10;7.2;;;6.5;;
48891;SDS011;50130;52.150;5.236;2022-08-11T04:33:40;8.81;;;6.6;;
48891;SDS011;50130;52.150;5.236;2022-08-11T04:35:51;7.0;;;6.0;;
48891;SDS011;50130;52.150;5.236;2022-08-11T04:37:54;7.6;;;6.0;;
48891;SDS011;50130;52.150;5.236;2022-08-11T04:40:39;7.3;;;6.1;;
48891;SDS011;50130;52.150;5.236;2022-08-11T04:45:34;7.4;;;6.6;;
48891;SDS011;50130;52.150;5.236;2022-08-11T05:02:05;8.0;;;5.8;;
48891;SDS011;50130;52.150;5.236;2022-08-11T05:09:25;8.81;;;6.2;;
48891;SDS011;50130;52.150;5.236;2022-08-11T05:12:19;7.4;;;6.3;;
48891;SDS011;50130;52.150;5.236;2022-08-11T05:34:56;9.1;;;6.6;;
48891;SDS011;50130;52.150;5.236;2022-08-11T05:35:26;6.3;;;5.5;;
48891;SDS011;50130;52.150;5.236;2022-08-11T05:37:19;8.81;;;6.9;;
48891;SDS011;50130;52.150;5.236;2022-08-11T05:57:29;9.71;;;6.1;;
48891;SDS011;50130;52.150;5.236;2022-08-11T05:59:19;8.4;;;6.1;;
48891;SDS011;50130;52.150;5.236;2022-08-11T06:01:08;7.2;;;6.2;;
48891;SDS011;50130;52.150;5.236;2022-08-11T06:03:00;6.5;;;5.9;;
48891;SDS011;50130;52.150;5.236;2022-08-11T06:04:52;8.0;;;5.5;;
48891;SDS011;50130;52.150;5.236;2022-08-11T06:06:50;8.31;;;6.3;;
48891;SDS011;50130;52.150;5.236;2022-08-11T06:08:43;8.2;;;6.2;;
48891;SDS011;50130;52.150;5.236;2022-08-11T06:10:32;9.6;;;6.7;;
48891;SDS011;50130;52.150;5.236;2022-08-11T06:14:11;10.4;;;6.3;;
48891;SDS011;50130;52.150;5.236;2022-08-11T06:15:59;8.0;;;5.5;;
48891;SDS011;50130;52.150;5.236;2022-08-11T06:17:47;6.2;;;5.4;;
48891;SDS011;50130;52.150;5.236;2022-08-11T06:19:35;7.7;;;5.9;;
48891;SDS011;50130;52.150;5.236;2022-08-11T06:21:27;9.9;;;6.2;;
48891;SDS011;50130;52.150;5.236;2022-08-11T06:23:17;8.4;;;6.1;;
48891;SDS011;50130;52.150;5.236;2022-08-11T06:25:05;7.0;;;5.9;;
48891;SDS011;50130;52.150;5.236;2022-08-11T06:28:44;8.31;;;6.2;;
48891;SDS011;50130;52.150;5.236;2022-08-11T06:30:32;7.4;;;5.6;;
48891;SDS011;50130;52.150;5.236;2022-08-11T06:32:23;8.0;;;5.9;;
48891;SDS011;50130;52.150;5.236;2022-08-11T06:34:12;6.0;;;5.0;;
48891;SDS011;50130;52.150;5.236;2022-08-11T06:36:20;6.7;;;5.2;;
48891;SDS011;50130;52.150;5.236;2022-08-11T06:38:23;9.1;;;5.8;;
48891;SDS011;50130;52.150;5.236;2022-08-11T06:40:25;7.6;;;5.7;;
48891;SDS011;50130;52.150;5.236;2022-08-11T06:42:28;8.0;;;5.6;;
48891;SDS011;50130;52.150;5.236;2022-08-11T06:44:23;7.9;;;5.8;;
48891;SDS011;50130;52.150;5.236;2022-08-11T06:46:15;8.4;;;5.3;;
48891;SDS011;50130;52.150;5.236;2022-08-11T06:48:14;9.21;;;5.8;;
48891;SDS011;50130;52.150;5.236;2022-08-11T06:53:05;8.31;;;5.3;;
48891;SDS011;50130;52.150;5.236;2022-08-11T06:54:56;6.3;;;4.8;;
48891;SDS011;50130;52.150;5.236;2022-08-11T07:00:29;7.4;;;4.91;;
48891;SDS011;50130;52.150;5.236;2022-08-11T07:02:21;7.8;;;5.11;;
48891;SDS011;50130;52.150;5.236;2022-08-11T07:04:14;6.1;;;4.91;;
48891;SDS011;50130;52.150;5.236;2022-08-11T07:06:16;7.7;;;4.8;;
48891;SDS011;50130;52.150;5.236;2022-08-11T07:16:03;7.2;;;4.5;;
48891;SDS011;50130;52.150;5.236;2022-08-11T07:28:57;6.1;;;3.8;;
48891;SDS011;50130;52.150;5.236;2022-08-11T07:30:46;6.3;;;3.6;;
48891;SDS011;50130;52.150;5.236;2022-08-11T07:32:36;6.2;;;3.9;;
48891;SDS011;50130;52.150;5.236;2022-08-11T07:34:37;5.8;;;3.5;;
48891;SDS011;50130;52.150;5.236;2022-08-11T07:36:30;5.8;;;3.7;;
48891;SDS011;50130;52.150;5.236;2022-08-11T07:38:19;7.2;;;3.3;;
48891;SDS011;50130;52.150;5.236;2022-08-11T07:42:03;6.1;;;3.5;;
48891;SDS011;50130;52.150;5.236;2022-08-11T07:43:54;7.1;;;3.0;;
48891;SDS011;50130;52.150;5.236;2022-08-11T07:52:53;8.31;;;2.9;;
48891;SDS011;50130;52.150;5.236;2022-08-11T07:54:40;8.31;;;2.9;;
48891;SDS011;50130;52.150;5.236;2022-08-11T07:56:27;6.3;;;2.6;;
48891;SDS011;50130;52.150;5.236;2022-08-11T08:19:36;3.5;;;2.0;;
48891;SDS011;50130;52.150;5.236;2022-08-11T08:21:23;5.4;;;2.31;;
48891;SDS011;50130;52.150;5.236;2022-08-11T08:23:09;3.5;;;2.1;;
48891;SDS011;50130;52.150;5.236;2022-08-11T08:24:56;5.2;;;1.9;;
48891;SDS011;50130;52.150;5.236;2022-08-11T08:26:59;4.91;;;2.0;;
48891;SDS011;50130;52.150;5.236;2022-08-11T08:28:46;6.3;;;2.0;;
48891;SDS011;50130;52.150;5.236;2022-08-11T08:32:37;7.2;;;2.4;;
48891;SDS011;50130;52.150;5.236;2022-08-11T08:34:26;5.7;;;2.1;;
48891;SDS011;50130;52.150;5.236;2022-08-11T08:36:14;3.6;;;1.8;;
48891;SDS011;50130;52.150;5.236;2022-08-11T08:38:02;4.91;;;1.9;;
48891;SDS011;50130;52.150;5.236;2022-08-11T08:39:49;5.11;;;2.4;;
48891;SDS011;50130;52.150;5.236;2022-08-11T08:41:37;5.4;;;2.1;;
48891;SDS011;50130;52.150;5.236;2022-08-11T08:43:25;6.0;;;1.9;;
48891;SDS011;50130;52.150;5.236;2022-08-11T08:45:15;4.1;;;2.0;;
48891;SDS011;50130;52.150;5.236;2022-08-11T08:48:56;6.1;;;2.31;;
48891;SDS011;50130;52.150;5.236;2022-08-11T08:51:52;6.0;;;1.8;;
48891;SDS011;50130;52.150;5.236;2022-08-11T08:53:45;8.2;;;2.5;;
48891;SDS011;50130;52.150;5.236;2022-08-11T08:57:31;5.5;;;2.0;;
48891;SDS011;50130;52.150;5.236;2022-08-11T08:59:21;6.4;;;2.0;;
48891;SDS011;50130;52.150;5.236;2022-08-11T09:03:01;4.8;;;1.8;;
48891;SDS011;50130;52.150;5.236;2022-08-11T09:04:49;6.0;;;1.9;;
48891;SDS011;50130;52.150;5.236;2022-08-11T09:06:39;6.5;;;2.6;;
48891;SDS011;50130;52.150;5.236;2022-08-11T09:08:29;6.1;;;2.1;;
48891;SDS011;50130;52.150;5.236;2022-08-11T09:12:07;5.8;;;1.8;;
48891;SDS011;50130;52.150;5.236;2022-08-11T09:13:56;6.3;;;1.8;;
48891;SDS011;50130;52.150;5.236;2022-08-11T09:15:44;5.6;;;2.1;;
48891;SDS011;50130;52.150;5.236;2022-08-11T09:17:32;5.6;;;1.8;;
48891;SDS011;50130;52.150;5.236;2022-08-11T09:19:22;5.7;;;2.31;;
48891;SDS011;50130;52.150;5.236;2022-08-11T09:21:14;8.1;;;2.1;;
48891;SDS011;50130;52.150;5.236;2022-08-11T09:27:11;5.2;;;1.9;;
48891;SDS011;50130;52.150;5.236;2022-08-11T09:29:00;5.0;;;2.0;;
48891;SDS011;50130;52.150;5.236;2022-08-11T09:30:49;6.0;;;2.1;;
48891;SDS011;50130;52.150;5.236;2022-08-11T09:32:40;7.5;;;2.21;;
48891;SDS011;50130;52.150;5.236;2022-08-11T09:34:28;5.0;;;2.1;;
48891;SDS011;50130;52.150;5.236;2022-08-11T09:40:32;6.6;;;2.21;;
48891;SDS011;50130;52.150;5.236;2022-08-11T09:42:19;18.5;;;3.4;;
48891;SDS011;50130;52.150;5.236;2022-08-11T09:45:12;5.6;;;2.21;;
48891;SDS011;50130;52.150;5.236;2022-08-11T09:46:59;4.5;;;2.0;;
48891;SDS011;50130;52.150;5.236;2022-08-11T09:48:48;4.7;;;2.0;;
48891;SDS011;50130;52.150;5.236;2022-08-11T09:50:38;4.41;;;2.0;;
48891;SDS011;50130;52.150;5.236;2022-08-11T09:52:25;4.3;;;1.9;;
48891;SDS011;50130;52.150;5.236;2022-08-11T09:58:12;7.6;;;2.31;;
48891;SDS011;50130;52.150;5.236;2022-08-11T10:00:00;3.6;;;1.8;;
48891;SDS011;50130;52.150;5.236;2022-08-11T10:01:48;8.1;;;2.0;;
48891;SDS011;50130;52.150;5.236;2022-08-11T10:03:47;5.2;;;2.0;;
48891;SDS011;50130;52.150;5.236;2022-08-11T10:08:36;8.5;;;1.9;;
48891;SDS011;50130;52.150;5.236;2022-08-11T10:10:25;8.4;;;1.7;;
48891;SDS011;50130;52.150;5.236;2022-08-11T10:12:16;3.1;;;1.9;;
48891;SDS011;50130;52.150;5.236;2022-08-11T10:17:17;5.6;;;1.9;;
48891;SDS011;50130;52.150;5.236;2022-08-11T10:20:57;5.8;;;2.1;;
48891;SDS011;50130;52.150;5.236;2022-08-11T10:26:54;5.9;;;1.8;;
48891;SDS011;50130;52.150;5.236;2022-08-11T10:35:38;4.3;;;1.9;;
48891;SDS011;50130;52.150;5.236;2022-08-11T10:37:33;3.3;;;1.6;;
48891;SDS011;50130;52.150;5.236;2022-08-11T10:39:22;3.4;;;1.8;;
48891;SDS011;50130;52.150;5.236;2022-08-11T10:44:15;5.11;;;1.7;;
48891;SDS011;50130;52.150;5.236;2022-08-11T10:49:06;2.6;;;1.5;;
48891;SDS011;50130;52.150;5.236;2022-08-11T11:00:05;3.6;;;1.7;;
48891;SDS011;50130;52.150;5.236;2022-08-11T11:01:57;5.0;;;1.6;;
48891;SDS011;50130;52.150;5.236;2022-08-11T11:03:45;4.61;;;1.8;;
48891;SDS011;50130;52.150;5.236;2022-08-11T11:05:32;5.8;;;1.9;;
48891;SDS011;50130;52.150;5.236;2022-08-11T11:09:24;4.91;;;1.7;;
48891;SDS011;50130;52.150;5.236;2022-08-11T11:11:15;5.5;;;1.8;;
48891;SDS011;50130;52.150;5.236;2022-08-11T11:19:50;5.9;;;1.8;;
48891;SDS011;50130;52.150;5.236;2022-08-11T11:21:44;4.61;;;1.8;;
48891;SDS011;50130;52.150;5.236;2022-08-11T11:23:37;5.7;;;1.8;;
48891;SDS011;50130;52.150;5.236;2022-08-11T11:25:33;7.0;;;1.6;;
48891;SDS011;50130;52.150;5.236;2022-08-11T11:27:31;5.11;;;1.8;;
48891;SDS011;50130;52.150;5.236;2022-08-11T11:29:28;4.91;;;1.8;;
48891;SDS011;50130;52.150;5.236;2022-08-11T11:31:47;6.2;;;1.7;;
48891;SDS011;50130;52.150;5.236;2022-08-11T11:33:52;4.1;;;1.7;;
48891;SDS011;50130;52.150;5.236;2022-08-11T11:36:03;5.2;;;1.7;;
48891;SDS011;50130;52.150;5.236;2022-08-11T11:38:00;2.5;;;1.7;;
48891;SDS011;50130;52.150;5.236;2022-08-11T11:39:50;4.1;;;1.8;;
48891;SDS011;50130;52.150;5.236;2022-08-11T11:41:40;4.1;;;1.8;;
48891;SDS011;50130;52.150;5.236;2022-08-11T11:43:27;3.5;;;1.5;;
48891;SDS011;50130;52.150;5.236;2022-08-11T11:45:14;4.7;;;1.6;;
48891;SDS011;50130;52.150;5.236;2022-08-11T11:48:52;3.9;;;1.9;;
48891;SDS011;50130;52.150;5.236;2022-08-11T11:50:40;8.6;;;2.0;;
48891;SDS011;50130;52.150;5.236;2022-08-11T11:52:27;4.7;;;1.7;;
48891;SDS011;50130;52.150;5.236;2022-08-11T11:54:14;3.5;;;1.6;;
48891;SDS011;50130;52.150;5.236;2022-08-11T11:56:06;6.6;;;2.0;;
48891;SDS011;50130;52.150;5.236;2022-08-11T12:01:27;5.6;;;1.7;;
48891;SDS011;50130;52.150;5.236;2022-08-11T12:03:17;4.3;;;1.7;;
48891;SDS011;50130;52.150;5.236;2022-08-11T12:05:06;4.3;;;1.7;;
48891;SDS011;50130;52.150;5.236;2022-08-11T12:08:08;6.3;;;1.7;;
48891;SDS011;50130;52.150;5.236;2022-08-11T12:09:58;4.5;;;1.5;;
48891;SDS011;50130;52.150;5.236;2022-08-11T12:14:48;4.91;;;1.6;;
48891;SDS011;50130;52.150;5.236;2022-08-11T12:16:37;7.6;;;1.8;;
48891;SDS011;50130;52.150;5.236;2022-08-11T12:20:15;3.4;;;1.5;;
48891;SDS011;50130;52.150;5.236;2022-08-11T12:28:09;4.1;;;1.9;;
48891;SDS011;50130;52.150;5.236;2022-08-11T12:29:56;3.4;;;2.1;;
48891;SDS011;50130;52.150;5.236;2022-08-11T12:31:46;2.9;;;1.8;;
48891;SDS011;50130;52.150;5.236;2022-08-11T12:33:34;3.9;;;1.8;;
48891;SDS011;50130;52.150;5.236;2022-08-11T12:35:20;5.8;;;1.5;;
48891;SDS011;50130;52.150;5.236;2022-08-11T12:39:02;5.8;;;2.1;;
48891;SDS011;50130;52.150;5.236;2022-08-11T12:45:41;3.3;;;1.6;;
48891;SDS011;50130;52.150;5.236;2022-08-11T12:51:59;4.41;;;1.6;;
48891;SDS011;50130;52.150;5.236;2022-08-11T12:52:26;4.41;;;1.3;;
48891;SDS011;50130;52.150;5.236;2022-08-11T12:54:25;6.5;;;1.5;;
48891;SDS011;50130;52.150;5.236;2022-08-11T13:05:22;3.4;;;1.3;;
48891;SDS011;50130;52.150;5.236;2022-08-11T13:07:10;3.5;;;1.3;;
48891;SDS011;50130;52.150;5.236;2022-08-11T13:08:58;2.9;;;1.3;;
48891;SDS011;50130;52.150;5.236;2022-08-11T13:13:48;3.2;;;1.5;;
48891;SDS011;50130;52.150;5.236;2022-08-11T13:15:36;2.31;;;1.3;;
48891;SDS011;50130;52.150;5.236;2022-08-11T13:17:23;5.3;;;1.3;;
48891;SDS011;50130;52.150;5.236;2022-08-11T13:20:57;1.9;;;1.3;;
48891;SDS011;50130;52.150;5.236;2022-08-11T13:22:45;3.1;;;1.2;;
48891;SDS011;50130;52.150;5.236;2022-08-11T13:24:35;3.4;;;1.3;;
48891;SDS011;50130;52.150;5.236;2022-08-11T13:26:24;6.2;;;1.2;;
48891;SDS011;50130;52.150;5.236;2022-08-11T13:28:11;2.7;;;1.5;;
48891;SDS011;50130;52.150;5.236;2022-08-11T13:31:10;5.4;;;1.4;;
48891;SDS011;50130;52.150;5.236;2022-08-11T13:32:56;2.9;;;1.3;;
48891;SDS011;50130;52.150;5.236;2022-08-11T13:34:45;4.7;;;1.3;;
48891;SDS011;50130;52.150;5.236;2022-08-11T13:36:32;5.2;;;1.4;;
48891;SDS011;50130;52.150;5.236;2022-08-11T13:38:21;4.91;;;1.3;;
48891;SDS011;50130;52.150;5.236;2022-08-11T13:41:59;4.2;;;1.4;;
48891;SDS011;50130;52.150;5.236;2022-08-11T13:43:47;4.2;;;1.5;;
48891;SDS011;50130;52.150;5.236;2022-08-11T13:45:35;4.5;;;1.6;;
48891;SDS011;50130;52.150;5.236;2022-08-11T13:47:23;1.8;;;1.3;;
48891;SDS011;50130;52.150;5.236;2022-08-11T13:49:10;3.4;;;1.4;;
48891;SDS011;50130;52.150;5.236;2022-08-11T13:51:34;2.4;;;1.3;;
48891;SDS011;50130;52.150;5.236;2022-08-11T13:53:25;4.3;;;1.4;;
48891;SDS011;50130;52.150;5.236;2022-08-11T13:55:20;4.5;;;1.5;;
48891;SDS011;50130;52.150;5.236;2022-08-11T13:57:08;3.2;;;1.3;;
48891;SDS011;50130;52.150;5.236;2022-08-11T14:00:48;4.41;;;1.3;;
48891;SDS011;50130;52.150;5.236;2022-08-11T14:02:38;4.1;;;1.4;;
48891;SDS011;50130;52.150;5.236;2022-08-11T14:04:30;4.1;;;1.4;;
48891;SDS011;50130;52.150;5.236;2022-08-11T14:06:23;4.41;;;1.3;;
48891;SDS011;50130;52.150;5.236;2022-08-11T14:08:31;3.7;;;1.3;;
48891;SDS011;50130;52.150;5.236;2022-08-11T14:10:23;5.6;;;1.6;;
48891;SDS011;50130;52.150;5.236;2022-08-11T14:15:19;3.4;;;1.11;;
48891;SDS011;50130;52.150;5.236;2022-08-11T14:17:08;3.8;;;1.3;;
48891;SDS011;50130;52.150;5.236;2022-08-11T14:18:59;3.1;;;1.11;;
48891;SDS011;50130;52.150;5.236;2022-08-11T14:23:54;3.1;;;1.3;;
48891;SDS011;50130;52.150;5.236;2022-08-11T14:26:22;1.7;;;1.3;;
48891;SDS011;50130;52.150;5.236;2022-08-11T14:28:08;4.1;;;1.2;;
48891;SDS011;50130;52.150;5.236;2022-08-11T14:29:56;7.7;;;1.4;;
48891;SDS011;50130;52.150;5.236;2022-08-11T14:31:45;3.9;;;1.6;;
48891;SDS011;50130;52.150;5.236;2022-08-11T14:33:34;4.0;;;1.3;;
48891;SDS011;50130;52.150;5.236;2022-08-11T14:35:23;4.0;;;1.4;;
48891;SDS011;50130;52.150;5.236;2022-08-11T14:37:13;4.41;;;1.4;;
48891;SDS011;50130;52.150;5.236;2022-08-11T14:39:05;5.2;;;1.5;;
48891;SDS011;50130;52.150;5.236;2022-08-11T14:47:39;2.5;;;1.5;;
48891;SDS011;50130;52.150;5.236;2022-08-11T14:49:27;3.9;;;1.3;;
48891;SDS011;50130;52.150;5.236;2022-08-11T14:53:04;5.7;;;1.3;;
48891;SDS011;50130;52.150;5.236;2022-08-11T14:58:38;7.0;;;1.9;;
48891;SDS011;50130;52.150;5.236;2022-08-11T15:00:27;4.0;;;1.3;;
48891;SDS011;50130;52.150;5.236;2022-08-11T15:03:20;3.3;;;1.4;;
48891;SDS011;50130;52.150;5.236;2022-08-11T15:05:09;3.4;;;1.4;;
48891;SDS011;50130;52.150;5.236;2022-08-11T15:06:56;3.4;;;1.5;;
48891;SDS011;50130;52.150;5.236;2022-08-11T15:08:59;2.7;;;1.2;;
48891;SDS011;50130;52.150;5.236;2022-08-11T15:10:46;2.7;;;1.4;;
48891;SDS011;50130;52.150;5.236;2022-08-11T15:12:35;4.1;;;1.5;;
48891;SDS011;50130;52.150;5.236;2022-08-11T15:18:10;3.7;;;1.4;;
48891;SDS011;50130;52.150;5.236;2022-08-11T15:24:24;3.4;;;1.5;;
48891;SDS011;50130;52.150;5.236;2022-08-11T15:38:32;5.4;;;1.5;;
48891;SDS011;50130;52.150;5.236;2022-08-11T15:46:34;2.0;;;1.3;;
48891;SDS011;50130;52.150;5.236;2022-08-11T15:48:30;4.8;;;1.4;;
48891;SDS011;50130;52.150;5.236;2022-08-11T15:50:29;3.2;;;1.3;;
48891;SDS011;50130;52.150;5.236;2022-08-11T15:54:12;3.5;;;1.3;;
48891;SDS011;50130;52.150;5.236;2022-08-11T16:04:34;2.7;;;1.2;;
48891;SDS011;50130;52.150;5.236;2022-08-11T16:08:11;3.2;;;1.4;;
48891;SDS011;50130;52.150;5.236;2022-08-11T16:10:04;1.9;;;1.2;;
48891;SDS011;50130;52.150;5.236;2022-08-11T16:11:54;3.6;;;1.3;;
48891;SDS011;50130;52.150;5.236;2022-08-11T16:16:48;3.5;;;1.3;;
48891;SDS011;50130;52.150;5.236;2022-08-11T16:18:40;4.7;;;1.5;;
48891;SDS011;50130;52.150;5.236;2022-08-11T16:20:30;4.8;;;1.4;;
48891;SDS011;50130;52.150;5.236;2022-08-11T16:22:22;5.0;;;1.3;;
48891;SDS011;50130;52.150;5.236;2022-08-11T16:24:13;2.9;;;1.3;;
48891;SDS011;50130;52.150;5.236;2022-08-11T16:26:02;4.0;;;1.7;;
48891;SDS011;50130;52.150;5.236;2022-08-11T16:27:52;4.5;;;1.3;;
48891;SDS011;50130;52.150;5.236;2022-08-11T16:29:46;5.11;;;1.5;;
48891;SDS011;50130;52.150;5.236;2022-08-11T16:33:27;3.8;;;1.4;;
48891;SDS011;50130;52.150;5.236;2022-08-11T16:38:34;5.4;;;1.3;;
48891;SDS011;50130;52.150;5.236;2022-08-11T16:40:25;3.7;;;1.3;;
48891;SDS011;50130;52.150;5.236;2022-08-11T16:49:06;3.5;;;1.5;;
48891;SDS011;50130;52.150;5.236;2022-08-11T16:51:09;5.0;;;1.4;;
48891;SDS011;50130;52.150;5.236;2022-08-11T16:52:57;3.2;;;1.3;;
48891;SDS011;50130;52.150;5.236;2022-08-11T16:56:34;4.1;;;1.4;;
48891;SDS011;50130;52.150;5.236;2022-08-11T16:59:31;3.2;;;1.3;;
48891;SDS011;50130;52.150;5.236;2022-08-11T17:01:21;3.6;;;1.5;;
48891;SDS011;50130;52.150;5.236;2022-08-11T17:13:08;4.5;;;1.3;;
48891;SDS011;50130;52.150;5.236;2022-08-11T17:14:57;1.9;;;1.3;;
48891;SDS011;50130;52.150;5.236;2022-08-11T17:16:48;4.8;;;1.4;;
48891;SDS011;50130;52.150;5.236;2022-08-11T17:18:41;4.91;;;1.5;;
48891;SDS011;50130;52.150;5.236;2022-08-11T17:20:33;4.1;;;1.6;;
48891;SDS011;50130;52.150;5.236;2022-08-11T17:25:24;2.7;;;1.5;;
48891;SDS011;50130;52.150;5.236;2022-08-11T17:27:15;5.2;;;1.3;;
48891;SDS011;50130;52.150;5.236;2022-08-11T17:35:46;4.3;;;1.5;;
48891;SDS011;50130;52.150;5.236;2022-08-11T17:37:34;3.8;;;1.2;;
48891;SDS011;50130;52.150;5.236;2022-08-11T17:39:24;4.41;;;1.4;;
48891;SDS011;50130;52.150;5.236;2022-08-11T17:48:27;1.6;;;1.11;;
48891;SDS011;50130;52.150;5.236;2022-08-11T17:51:05;3.2;;;1.4;;
48891;SDS011;50130;52.150;5.236;2022-08-11T18:00:06;3.3;;;1.11;;
48891;SDS011;50130;52.150;5.236;2022-08-11T18:01:55;2.7;;;1.11;;
48891;SDS011;50130;52.150;5.236;2022-08-11T18:05:35;4.2;;;1.2;;
